sensor_id;sensor_type;location;lat;lon;timestamp;P1;durP1;ratioP1;P2;durP2;ratioP2
50249;SDS011;36133;42.522;27.456;2022-11-20T00:02:21;16.60;;;4.30;;
50249;SDS011;36133;42.522;27.456;2022-11-20T00:04:46;18.85;;;5.18;;
50249;SDS011;36133;42.522;27.456;2022-11-20T00:07:12;15.13;;;4.40;;
50249;SDS011;36133;42.522;27.456;2022-11-20T00:09:37;17.13;;;4.32;;
50249;SDS011;36133;42.522;27.456;2022-11-20T00:12:03;13.88;;;3.97;;
50249;SDS011;36133;42.522;27.456;2022-11-20T00:14:29;17.90;;;5.07;;
50249;SDS011;36133;42.522;27.456;2022-11-20T00:16:54;21.00;;;4.80;;
50249;SDS011;36133;42.522;27.456;2022-11-20T00:19:20;16.45;;;4.13;;
50249;SDS011;36133;42.522;27.456;2022-11-20T00:21:45;15.32;;;4.65;;
50249;SDS011;36133;42.522;27.456;2022-11-20T00:24:11;15.60;;;4.03;;
50249;SDS011;36133;42.522;27.456;2022-11-20T00:26:37;11.82;;;3.75;;
50249;SDS011;36133;42.522;27.456;2022-11-20T00:29:03;18.40;;;3.90;;
50249;SDS011;36133;42.522;27.456;2022-11-20T00:31:29;14.20;;;4.32;;
50249;SDS011;36133;42.522;27.456;2022-11-20T00:33:55;18.17;;;4.47;;
50249;SDS011;36133;42.522;27.456;2022-11-20T00:36:22;16.13;;;4.20;;
50249;SDS011;36133;42.522;27.456;2022-11-20T00:38:53;16.90;;;4.00;;
50249;SDS011;36133;42.522;27.456;2022-11-20T00:41:20;14.95;;;4.03;;
50249;SDS011;36133;42.522;27.456;2022-11-20T00:43:46;15.65;;;4.43;;
50249;SDS011;36133;42.522;27.456;2022-11-20T00:46:13;20.55;;;5.05;;
50249;SDS011;36133;42.522;27.456;2022-11-20T00:48:43;17.20;;;4.28;;
50249;SDS011;36133;42.522;27.456;2022-11-20T00:51:09;14.75;;;3.92;;
50249;SDS011;36133;42.522;27.456;2022-11-20T00:53:37;11.93;;;3.90;;
50249;SDS011;36133;42.522;27.456;2022-11-20T00:56:04;9.90;;;3.67;;
50249;SDS011;36133;42.522;27.456;2022-11-20T00:58:32;15.52;;;4.07;;
50249;SDS011;36133;42.522;27.456;2022-11-20T01:01:03;14.20;;;3.83;;
50249;SDS011;36133;42.522;27.456;2022-11-20T01:03:31;22.15;;;3.85;;
50249;SDS011;36133;42.522;27.456;2022-11-20T01:06:05;12.65;;;3.60;;
50249;SDS011;36133;42.522;27.456;2022-11-20T01:08:41;9.60;;;3.15;;
50249;SDS011;36133;42.522;27.456;2022-11-20T01:11:11;18.48;;;4.03;;
50249;SDS011;36133;42.522;27.456;2022-11-20T01:13:48;13.15;;;3.72;;
50249;SDS011;36133;42.522;27.456;2022-11-20T01:16:16;11.88;;;4.35;;
50249;SDS011;36133;42.522;27.456;2022-11-20T01:18:44;15.18;;;3.70;;
50249;SDS011;36133;42.522;27.456;2022-11-20T01:21:15;15.30;;;3.70;;
50249;SDS011;36133;42.522;27.456;2022-11-20T01:23:43;12.52;;;3.47;;
50249;SDS011;36133;42.522;27.456;2022-11-20T01:26:10;14.60;;;3.83;;
50249;SDS011;36133;42.522;27.456;2022-11-20T01:28:38;19.85;;;4.22;;
50249;SDS011;36133;42.522;27.456;2022-11-20T01:31:12;17.23;;;3.92;;
50249;SDS011;36133;42.522;27.456;2022-11-20T01:33:40;22.10;;;4.82;;
50249;SDS011;36133;42.522;27.456;2022-11-20T01:36:06;19.35;;;4.18;;
50249;SDS011;36133;42.522;27.456;2022-11-20T01:38:32;17.38;;;4.55;;
50249;SDS011;36133;42.522;27.456;2022-11-20T01:40:58;17.52;;;4.55;;
50249;SDS011;36133;42.522;27.456;2022-11-20T01:43:24;13.95;;;4.00;;
50249;SDS011;36133;42.522;27.456;2022-11-20T01:48:46;13.40;;;3.55;;
50249;SDS011;36133;42.522;27.456;2022-11-20T01:51:40;11.38;;;4.00;;
50249;SDS011;36133;42.522;27.456;2022-11-20T01:54:17;14.63;;;3.80;;
50249;SDS011;36133;42.522;27.456;2022-11-20T01:56:48;18.20;;;3.70;;
50249;SDS011;36133;42.522;27.456;2022-11-20T01:59:19;14.98;;;3.75;;
50249;SDS011;36133;42.522;27.456;2022-11-20T02:01:46;18.45;;;3.97;;
50249;SDS011;36133;42.522;27.456;2022-11-20T02:04:12;12.30;;;3.90;;
50249;SDS011;36133;42.522;27.456;2022-11-20T02:06:48;15.50;;;4.20;;
50249;SDS011;36133;42.522;27.456;2022-11-20T02:09:18;16.35;;;3.80;;
50249;SDS011;36133;42.522;27.456;2022-11-20T02:11:44;20.17;;;4.50;;
50249;SDS011;36133;42.522;27.456;2022-11-20T02:14:09;13.70;;;4.00;;
50249;SDS011;36133;42.522;27.456;2022-11-20T02:16:53;12.35;;;3.72;;
50249;SDS011;36133;42.522;27.456;2022-11-20T02:19:30;18.20;;;3.63;;
50249;SDS011;36133;42.522;27.456;2022-11-20T02:22:14;19.00;;;4.20;;
50249;SDS011;36133;42.522;27.456;2022-11-20T02:24:46;18.70;;;4.00;;
50249;SDS011;36133;42.522;27.456;2022-11-20T02:27:15;15.73;;;4.03;;
50249;SDS011;36133;42.522;27.456;2022-11-20T02:29:44;21.35;;;4.72;;
50249;SDS011;36133;42.522;27.456;2022-11-20T02:32:17;14.73;;;3.22;;
50249;SDS011;36133;42.522;27.456;2022-11-20T02:34:47;16.48;;;3.42;;
50249;SDS011;36133;42.522;27.456;2022-11-20T02:37:12;16.77;;;3.42;;
50249;SDS011;36133;42.522;27.456;2022-11-20T02:39:39;16.35;;;3.85;;
50249;SDS011;36133;42.522;27.456;2022-11-20T02:42:05;19.35;;;3.97;;
50249;SDS011;36133;42.522;27.456;2022-11-20T02:44:31;14.35;;;3.85;;
50249;SDS011;36133;42.522;27.456;2022-11-20T02:46:57;16.75;;;3.80;;
50249;SDS011;36133;42.522;27.456;2022-11-20T02:49:23;18.85;;;4.03;;
50249;SDS011;36133;42.522;27.456;2022-11-20T02:51:49;17.17;;;3.65;;
50249;SDS011;36133;42.522;27.456;2022-11-20T02:54:14;20.63;;;3.88;;
50249;SDS011;36133;42.522;27.456;2022-11-20T02:56:40;14.88;;;3.53;;
50249;SDS011;36133;42.522;27.456;2022-11-20T02:59:06;14.07;;;3.85;;
50249;SDS011;36133;42.522;27.456;2022-11-20T03:01:32;13.68;;;3.65;;
50249;SDS011;36133;42.522;27.456;2022-11-20T03:03:57;16.83;;;4.20;;
50249;SDS011;36133;42.522;27.456;2022-11-20T03:06:23;21.58;;;4.50;;
50249;SDS011;36133;42.522;27.456;2022-11-20T03:08:48;22.02;;;4.40;;
50249;SDS011;36133;42.522;27.456;2022-11-20T03:11:14;19.48;;;4.47;;
50249;SDS011;36133;42.522;27.456;2022-11-20T03:13:39;18.48;;;4.28;;
50249;SDS011;36133;42.522;27.456;2022-11-20T03:16:06;20.48;;;4.13;;
50249;SDS011;36133;42.522;27.456;2022-11-20T03:18:32;15.52;;;4.47;;
50249;SDS011;36133;42.522;27.456;2022-11-20T03:20:58;15.25;;;3.35;;
50249;SDS011;36133;42.522;27.456;2022-11-20T03:23:24;20.15;;;3.92;;
50249;SDS011;36133;42.522;27.456;2022-11-20T03:25:49;18.52;;;4.22;;
50249;SDS011;36133;42.522;27.456;2022-11-20T03:28:15;20.80;;;4.38;;
50249;SDS011;36133;42.522;27.456;2022-11-20T03:30:40;21.25;;;3.85;;
50249;SDS011;36133;42.522;27.456;2022-11-20T03:33:06;19.55;;;4.50;;
50249;SDS011;36133;42.522;27.456;2022-11-20T03:35:31;11.25;;;2.85;;
50249;SDS011;36133;42.522;27.456;2022-11-20T03:37:57;21.42;;;4.63;;
50249;SDS011;36133;42.522;27.456;2022-11-20T03:40:23;21.17;;;4.25;;
50249;SDS011;36133;42.522;27.456;2022-11-20T03:42:48;17.33;;;3.90;;
50249;SDS011;36133;42.522;27.456;2022-11-20T03:45:17;24.13;;;4.28;;
50249;SDS011;36133;42.522;27.456;2022-11-20T03:47:43;16.63;;;4.50;;
50249;SDS011;36133;42.522;27.456;2022-11-20T03:50:11;14.00;;;3.30;;
50249;SDS011;36133;42.522;27.456;2022-11-20T03:52:38;14.43;;;3.85;;
50249;SDS011;36133;42.522;27.456;2022-11-20T03:55:04;19.90;;;3.80;;
50249;SDS011;36133;42.522;27.456;2022-11-20T03:57:30;14.82;;;3.17;;
50249;SDS011;36133;42.522;27.456;2022-11-20T03:59:56;12.15;;;3.17;;
50249;SDS011;36133;42.522;27.456;2022-11-20T04:02:21;15.18;;;3.53;;
50249;SDS011;36133;42.522;27.456;2022-11-20T04:04:47;25.98;;;4.30;;
50249;SDS011;36133;42.522;27.456;2022-11-20T04:07:12;21.40;;;4.13;;
50249;SDS011;36133;42.522;27.456;2022-11-20T04:09:38;14.25;;;3.97;;
50249;SDS011;36133;42.522;27.456;2022-11-20T04:12:04;14.27;;;3.75;;
50249;SDS011;36133;42.522;27.456;2022-11-20T04:14:29;15.65;;;3.47;;
50249;SDS011;36133;42.522;27.456;2022-11-20T04:16:55;13.93;;;3.83;;
50249;SDS011;36133;42.522;27.456;2022-11-20T04:19:20;19.65;;;4.18;;
50249;SDS011;36133;42.522;27.456;2022-11-20T04:21:46;20.33;;;4.35;;
50249;SDS011;36133;42.522;27.456;2022-11-20T04:24:11;17.45;;;4.07;;
50249;SDS011;36133;42.522;27.456;2022-11-20T04:26:37;12.25;;;2.83;;
50249;SDS011;36133;42.522;27.456;2022-11-20T04:29:03;20.58;;;4.28;;
50249;SDS011;36133;42.522;27.456;2022-11-20T04:31:31;23.63;;;4.43;;
50249;SDS011;36133;42.522;27.456;2022-11-20T04:34:02;17.65;;;3.83;;
50249;SDS011;36133;42.522;27.456;2022-11-20T04:36:29;23.20;;;4.38;;
50249;SDS011;36133;42.522;27.456;2022-11-20T04:38:59;27.42;;;4.68;;
50249;SDS011;36133;42.522;27.456;2022-11-20T04:41:27;19.70;;;4.70;;
50249;SDS011;36133;42.522;27.456;2022-11-20T04:43:55;22.77;;;3.67;;
50249;SDS011;36133;42.522;27.456;2022-11-20T04:46:25;18.75;;;4.03;;
50249;SDS011;36133;42.522;27.456;2022-11-20T04:48:52;6.53;;;2.30;;
50249;SDS011;36133;42.522;27.456;2022-11-20T04:51:18;22.55;;;4.30;;
50249;SDS011;36133;42.522;27.456;2022-11-20T04:53:43;17.77;;;4.15;;
50249;SDS011;36133;42.522;27.456;2022-11-20T04:56:10;19.45;;;4.30;;
50249;SDS011;36133;42.522;27.456;2022-11-20T04:58:37;17.70;;;4.28;;
50249;SDS011;36133;42.522;27.456;2022-11-20T05:01:23;20.58;;;4.53;;
50249;SDS011;36133;42.522;27.456;2022-11-20T05:06:16;17.98;;;3.78;;
50249;SDS011;36133;42.522;27.456;2022-11-20T05:08:43;23.40;;;4.68;;
50249;SDS011;36133;42.522;27.456;2022-11-20T05:13:37;17.77;;;4.30;;
50249;SDS011;36133;42.522;27.456;2022-11-20T05:16:03;28.80;;;5.75;;
50249;SDS011;36133;42.522;27.456;2022-11-20T05:18:33;19.27;;;4.43;;
50249;SDS011;36133;42.522;27.456;2022-11-20T05:20:59;14.88;;;3.95;;
50249;SDS011;36133;42.522;27.456;2022-11-20T05:23:25;19.65;;;4.45;;
50249;SDS011;36133;42.522;27.456;2022-11-20T05:25:52;19.85;;;4.95;;
50249;SDS011;36133;42.522;27.456;2022-11-20T05:28:21;23.15;;;4.47;;
50249;SDS011;36133;42.522;27.456;2022-11-20T05:30:48;16.58;;;3.88;;
50249;SDS011;36133;42.522;27.456;2022-11-20T05:33:14;21.35;;;4.65;;
50249;SDS011;36133;42.522;27.456;2022-11-20T05:35:40;12.07;;;3.08;;
50249;SDS011;36133;42.522;27.456;2022-11-20T05:38:05;12.13;;;3.45;;
50249;SDS011;36133;42.522;27.456;2022-11-20T05:40:31;21.17;;;4.28;;
50249;SDS011;36133;42.522;27.456;2022-11-20T05:42:56;22.85;;;4.45;;
50249;SDS011;36133;42.522;27.456;2022-11-20T05:45:22;17.40;;;4.00;;
50249;SDS011;36133;42.522;27.456;2022-11-20T05:47:47;17.63;;;4.35;;
50249;SDS011;36133;42.522;27.456;2022-11-20T05:50:13;16.15;;;3.88;;
50249;SDS011;36133;42.522;27.456;2022-11-20T05:52:39;12.00;;;3.30;;
50249;SDS011;36133;42.522;27.456;2022-11-20T05:55:05;11.32;;;3.45;;
50249;SDS011;36133;42.522;27.456;2022-11-20T05:57:31;10.73;;;3.30;;
50249;SDS011;36133;42.522;27.456;2022-11-20T05:59:57;18.85;;;4.38;;
50249;SDS011;36133;42.522;27.456;2022-11-20T06:02:22;11.68;;;3.42;;
50249;SDS011;36133;42.522;27.456;2022-11-20T06:04:48;13.88;;;3.60;;
50249;SDS011;36133;42.522;27.456;2022-11-20T06:07:13;22.33;;;4.07;;
50249;SDS011;36133;42.522;27.456;2022-11-20T06:09:39;22.70;;;4.53;;
50249;SDS011;36133;42.522;27.456;2022-11-20T06:12:05;11.13;;;3.38;;
50249;SDS011;36133;42.522;27.456;2022-11-20T06:14:30;26.45;;;5.53;;
50249;SDS011;36133;42.522;27.456;2022-11-20T06:16:56;16.75;;;4.03;;
50249;SDS011;36133;42.522;27.456;2022-11-20T06:19:21;19.60;;;5.07;;
50249;SDS011;36133;42.522;27.456;2022-11-20T06:21:47;18.05;;;4.60;;
50249;SDS011;36133;42.522;27.456;2022-11-20T06:24:14;13.82;;;3.22;;
50249;SDS011;36133;42.522;27.456;2022-11-20T06:26:40;20.40;;;4.18;;
50249;SDS011;36133;42.522;27.456;2022-11-20T06:29:05;26.77;;;5.00;;
50249;SDS011;36133;42.522;27.456;2022-11-20T06:31:31;15.93;;;3.80;;
50249;SDS011;36133;42.522;27.456;2022-11-20T06:34:02;24.73;;;5.20;;
50249;SDS011;36133;42.522;27.456;2022-11-20T06:36:33;14.98;;;3.55;;
50249;SDS011;36133;42.522;27.456;2022-11-20T06:38:59;21.08;;;4.65;;
50249;SDS011;36133;42.522;27.456;2022-11-20T06:41:26;14.45;;;3.83;;
50249;SDS011;36133;42.522;27.456;2022-11-20T06:43:52;24.52;;;5.15;;
50249;SDS011;36133;42.522;27.456;2022-11-20T06:46:18;11.65;;;3.38;;
50249;SDS011;36133;42.522;27.456;2022-11-20T06:48:45;16.50;;;3.60;;
50249;SDS011;36133;42.522;27.456;2022-11-20T06:51:11;12.15;;;3.20;;
50249;SDS011;36133;42.522;27.456;2022-11-20T06:53:37;18.98;;;4.53;;
50249;SDS011;36133;42.522;27.456;2022-11-20T06:56:03;16.08;;;3.60;;
50249;SDS011;36133;42.522;27.456;2022-11-20T06:58:29;19.35;;;4.90;;
50249;SDS011;36133;42.522;27.456;2022-11-20T07:01:06;23.50;;;4.95;;
50249;SDS011;36133;42.522;27.456;2022-11-20T07:03:34;12.88;;;3.30;;
50249;SDS011;36133;42.522;27.456;2022-11-20T07:06:00;19.80;;;3.03;;
50249;SDS011;36133;42.522;27.456;2022-11-20T07:08:27;16.75;;;4.18;;
50249;SDS011;36133;42.522;27.456;2022-11-20T07:10:57;15.32;;;4.15;;
50249;SDS011;36133;42.522;27.456;2022-11-20T07:13:24;15.65;;;3.58;;
50249;SDS011;36133;42.522;27.456;2022-11-20T07:15:50;22.40;;;4.65;;
50249;SDS011;36133;42.522;27.456;2022-11-20T07:18:16;17.52;;;3.70;;
50249;SDS011;36133;42.522;27.456;2022-11-20T07:20:41;14.98;;;4.03;;
50249;SDS011;36133;42.522;27.456;2022-11-20T07:23:07;16.85;;;4.25;;
50249;SDS011;36133;42.522;27.456;2022-11-20T07:25:32;22.85;;;4.60;;
50249;SDS011;36133;42.522;27.456;2022-11-20T07:27:59;15.57;;;3.72;;
50249;SDS011;36133;42.522;27.456;2022-11-20T07:30:26;14.82;;;4.47;;
50249;SDS011;36133;42.522;27.456;2022-11-20T07:32:53;11.85;;;3.72;;
50249;SDS011;36133;42.522;27.456;2022-11-20T07:35:20;26.70;;;4.75;;
50249;SDS011;36133;42.522;27.456;2022-11-20T07:37:47;15.10;;;3.47;;
50249;SDS011;36133;42.522;27.456;2022-11-20T07:40:18;20.40;;;4.50;;
50249;SDS011;36133;42.522;27.456;2022-11-20T07:42:51;27.27;;;5.00;;
50249;SDS011;36133;42.522;27.456;2022-11-20T07:45:18;21.92;;;4.30;;
50249;SDS011;36133;42.522;27.456;2022-11-20T07:47:45;20.70;;;4.55;;
50249;SDS011;36133;42.522;27.456;2022-11-20T07:50:11;22.83;;;3.85;;
50249;SDS011;36133;42.522;27.456;2022-11-20T07:52:38;18.13;;;3.63;;
50249;SDS011;36133;42.522;27.456;2022-11-20T07:55:03;23.38;;;4.78;;
50249;SDS011;36133;42.522;27.456;2022-11-20T07:57:30;22.25;;;4.78;;
50249;SDS011;36133;42.522;27.456;2022-11-20T07:59:56;29.85;;;5.07;;
50249;SDS011;36133;42.522;27.456;2022-11-20T08:02:21;20.13;;;3.67;;
50249;SDS011;36133;42.522;27.456;2022-11-20T08:04:47;21.60;;;4.18;;
50249;SDS011;36133;42.522;27.456;2022-11-20T08:07:12;22.45;;;4.13;;
50249;SDS011;36133;42.522;27.456;2022-11-20T08:09:38;20.35;;;4.35;;
50249;SDS011;36133;42.522;27.456;2022-11-20T08:12:04;25.30;;;4.70;;
50249;SDS011;36133;42.522;27.456;2022-11-20T08:14:48;15.52;;;4.28;;
50249;SDS011;36133;42.522;27.456;2022-11-20T08:17:13;18.10;;;3.70;;
50249;SDS011;36133;42.522;27.456;2022-11-20T08:19:39;21.02;;;3.97;;
50249;SDS011;36133;42.522;27.456;2022-11-20T08:22:08;21.70;;;3.60;;
50249;SDS011;36133;42.522;27.456;2022-11-20T08:24:34;15.63;;;3.78;;
50249;SDS011;36133;42.522;27.456;2022-11-20T08:27:00;20.50;;;3.83;;
50249;SDS011;36133;42.522;27.456;2022-11-20T08:29:26;17.55;;;3.30;;
50249;SDS011;36133;42.522;27.456;2022-11-20T08:31:52;14.52;;;3.58;;
50249;SDS011;36133;42.522;27.456;2022-11-20T08:34:18;16.35;;;4.05;;
50249;SDS011;36133;42.522;27.456;2022-11-20T08:36:43;15.48;;;3.55;;
50249;SDS011;36133;42.522;27.456;2022-11-20T08:39:20;24.80;;;5.18;;
50249;SDS011;36133;42.522;27.456;2022-11-20T08:41:45;26.45;;;4.15;;
50249;SDS011;36133;42.522;27.456;2022-11-20T08:44:11;28.50;;;5.18;;
50249;SDS011;36133;42.522;27.456;2022-11-20T08:46:39;30.95;;;5.07;;
50249;SDS011;36133;42.522;27.456;2022-11-20T08:49:07;18.17;;;4.03;;
50249;SDS011;36133;42.522;27.456;2022-11-20T08:51:36;19.10;;;4.78;;
50249;SDS011;36133;42.522;27.456;2022-11-20T08:54:02;19.73;;;5.00;;
50249;SDS011;36133;42.522;27.456;2022-11-20T08:56:28;11.15;;;3.15;;
50249;SDS011;36133;42.522;27.456;2022-11-20T08:58:54;21.33;;;4.30;;
50249;SDS011;36133;42.522;27.456;2022-11-20T09:01:21;22.88;;;4.75;;
50249;SDS011;36133;42.522;27.456;2022-11-20T09:03:48;22.65;;;4.07;;
50249;SDS011;36133;42.522;27.456;2022-11-20T09:06:14;19.25;;;4.40;;
50249;SDS011;36133;42.522;27.456;2022-11-20T09:08:41;27.33;;;4.75;;
50249;SDS011;36133;42.522;27.456;2022-11-20T09:11:06;25.25;;;5.53;;
50249;SDS011;36133;42.522;27.456;2022-11-20T09:13:33;30.08;;;5.57;;
50249;SDS011;36133;42.522;27.456;2022-11-20T09:16:04;30.83;;;5.00;;
50249;SDS011;36133;42.522;27.456;2022-11-20T09:18:32;23.95;;;5.30;;
50249;SDS011;36133;42.522;27.456;2022-11-20T09:21:02;24.98;;;4.95;;
50249;SDS011;36133;42.522;27.456;2022-11-20T09:23:33;14.63;;;3.85;;
50249;SDS011;36133;42.522;27.456;2022-11-20T09:26:06;30.05;;;5.57;;
50249;SDS011;36133;42.522;27.456;2022-11-20T09:28:36;22.88;;;5.13;;
50249;SDS011;36133;42.522;27.456;2022-11-20T09:31:09;25.85;;;4.70;;
50249;SDS011;36133;42.522;27.456;2022-11-20T09:33:50;29.75;;;5.85;;
50249;SDS011;36133;42.522;27.456;2022-11-20T09:36:16;37.25;;;6.10;;
50249;SDS011;36133;42.522;27.456;2022-11-20T09:38:43;27.05;;;4.88;;
50249;SDS011;36133;42.522;27.456;2022-11-20T09:42:00;25.92;;;4.57;;
50249;SDS011;36133;42.522;27.456;2022-11-20T09:47:08;21.75;;;5.28;;
50249;SDS011;36133;42.522;27.456;2022-11-20T09:55:44;29.48;;;5.90;;
50249;SDS011;36133;42.522;27.456;2022-11-20T09:58:45;29.67;;;5.57;;
50249;SDS011;36133;42.522;27.456;2022-11-20T10:01:15;24.90;;;5.38;;
50249;SDS011;36133;42.522;27.456;2022-11-20T10:03:44;30.60;;;5.47;;
50249;SDS011;36133;42.522;27.456;2022-11-20T10:06:30;28.33;;;4.82;;
50249;SDS011;36133;42.522;27.456;2022-11-20T10:09:04;39.20;;;6.10;;
50249;SDS011;36133;42.522;27.456;2022-11-20T10:22:59;36.35;;;5.18;;
50249;SDS011;36133;42.522;27.456;2022-11-20T10:31:02;31.83;;;6.15;;
50249;SDS011;36133;42.522;27.456;2022-11-20T10:33:34;28.20;;;5.20;;
50249;SDS011;36133;42.522;27.456;2022-11-20T10:36:05;28.70;;;5.65;;
50249;SDS011;36133;42.522;27.456;2022-11-20T10:38:40;36.55;;;6.65;;
50249;SDS011;36133;42.522;27.456;2022-11-20T10:41:16;44.60;;;7.13;;
50249;SDS011;36133;42.522;27.456;2022-11-20T10:43:53;38.28;;;6.68;;
50249;SDS011;36133;42.522;27.456;2022-11-20T10:46:37;22.25;;;4.78;;
50249;SDS011;36133;42.522;27.456;2022-11-20T10:49:12;25.05;;;5.30;;
50249;SDS011;36133;42.522;27.456;2022-11-20T10:57:15;20.25;;;5.32;;
50249;SDS011;36133;42.522;27.456;2022-11-20T11:00:01;34.15;;;6.00;;
50249;SDS011;36133;42.522;27.456;2022-11-20T11:02:34;48.92;;;7.75;;
50249;SDS011;36133;42.522;27.456;2022-11-20T11:07:58;32.40;;;6.40;;
50249;SDS011;36133;42.522;27.456;2022-11-20T11:10:26;23.80;;;4.72;;
50249;SDS011;36133;42.522;27.456;2022-11-20T11:13:00;29.98;;;6.07;;
50249;SDS011;36133;42.522;27.456;2022-11-20T11:17:52;22.15;;;5.28;;
50249;SDS011;36133;42.522;27.456;2022-11-20T11:20:21;20.42;;;4.90;;
50249;SDS011;36133;42.522;27.456;2022-11-20T11:22:56;29.58;;;6.25;;
50249;SDS011;36133;42.522;27.456;2022-11-20T11:25:35;33.63;;;6.82;;
50249;SDS011;36133;42.522;27.456;2022-11-20T11:30:43;32.25;;;7.22;;
50249;SDS011;36133;42.522;27.456;2022-11-20T11:33:11;40.40;;;7.63;;
50249;SDS011;36133;42.522;27.456;2022-11-20T11:35:47;29.42;;;7.40;;
50249;SDS011;36133;42.522;27.456;2022-11-20T11:38:19;23.08;;;5.18;;
50249;SDS011;36133;42.522;27.456;2022-11-20T11:40:53;26.30;;;6.30;;
50249;SDS011;36133;42.522;27.456;2022-11-20T11:43:25;34.60;;;6.93;;
50249;SDS011;36133;42.522;27.456;2022-11-20T11:46:22;33.60;;;7.18;;
50249;SDS011;36133;42.522;27.456;2022-11-20T11:49:16;36.13;;;6.57;;
50249;SDS011;36133;42.522;27.456;2022-11-20T11:51:47;33.33;;;7.93;;
50249;SDS011;36133;42.522;27.456;2022-11-20T12:00:00;33.70;;;7.38;;
50249;SDS011;36133;42.522;27.456;2022-11-20T12:07:53;38.22;;;7.95;;
50249;SDS011;36133;42.522;27.456;2022-11-20T12:10:43;26.60;;;5.90;;
50249;SDS011;36133;42.522;27.456;2022-11-20T12:16:26;35.80;;;8.35;;
50249;SDS011;36133;42.522;27.456;2022-11-20T12:18:53;24.85;;;5.90;;
50249;SDS011;36133;42.522;27.456;2022-11-20T12:21:34;38.10;;;8.40;;
50249;SDS011;36133;42.522;27.456;2022-11-20T12:26:58;38.45;;;8.35;;
50249;SDS011;36133;42.522;27.456;2022-11-20T12:32:52;38.33;;;7.93;;
50249;SDS011;36133;42.522;27.456;2022-11-20T12:44:23;40.53;;;8.57;;
50249;SDS011;36133;42.522;27.456;2022-11-20T12:50:02;30.55;;;6.57;;
50249;SDS011;36133;42.522;27.456;2022-11-20T12:52:43;42.63;;;8.63;;
50249;SDS011;36133;42.522;27.456;2022-11-20T13:00:54;40.20;;;8.52;;
50249;SDS011;36133;42.522;27.456;2022-11-20T13:04:03;38.25;;;7.00;;
50249;SDS011;36133;42.522;27.456;2022-11-20T13:06:25;31.40;;;7.60;;
50249;SDS011;36133;42.522;27.456;2022-11-20T13:08:55;44.30;;;8.10;;
50249;SDS011;36133;42.522;27.456;2022-11-20T13:11:30;43.83;;;9.50;;
50249;SDS011;36133;42.522;27.456;2022-11-20T13:17:14;33.40;;;7.30;;
50249;SDS011;36133;42.522;27.456;2022-11-20T13:19:53;48.42;;;8.27;;
50249;SDS011;36133;42.522;27.456;2022-11-20T13:22:24;33.30;;;7.47;;
50249;SDS011;36133;42.522;27.456;2022-11-20T13:24:51;46.60;;;7.88;;
50249;SDS011;36133;42.522;27.456;2022-11-20T13:27:19;47.45;;;7.85;;
50249;SDS011;36133;42.522;27.456;2022-11-20T13:29:47;37.13;;;7.40;;
50249;SDS011;36133;42.522;27.456;2022-11-20T13:32:47;52.88;;;8.60;;
50249;SDS011;36133;42.522;27.456;2022-11-20T13:35:27;48.83;;;8.60;;
50249;SDS011;36133;42.522;27.456;2022-11-20T13:38:12;35.80;;;7.18;;
50249;SDS011;36133;42.522;27.456;2022-11-20T13:41:22;34.65;;;7.22;;
50249;SDS011;36133;42.522;27.456;2022-11-20T13:43:57;35.55;;;6.63;;
50249;SDS011;36133;42.522;27.456;2022-11-20T13:46:46;47.75;;;7.57;;
50249;SDS011;36133;42.522;27.456;2022-11-20T13:49:21;48.70;;;7.70;;
50249;SDS011;36133;42.522;27.456;2022-11-20T13:51:56;49.38;;;9.05;;
50249;SDS011;36133;42.522;27.456;2022-11-20T13:57:37;37.30;;;7.78;;
50249;SDS011;36133;42.522;27.456;2022-11-20T14:00:29;54.30;;;8.65;;
50249;SDS011;36133;42.522;27.456;2022-11-20T14:05:26;49.95;;;8.63;;
50249;SDS011;36133;42.522;27.456;2022-11-20T14:08:00;54.67;;;8.82;;
50249;SDS011;36133;42.522;27.456;2022-11-20T14:10:29;54.25;;;9.70;;
50249;SDS011;36133;42.522;27.456;2022-11-20T14:12:55;50.50;;;8.05;;
50249;SDS011;36133;42.522;27.456;2022-11-20T14:15:31;55.70;;;9.75;;
50249;SDS011;36133;42.522;27.456;2022-11-20T14:17:59;34.83;;;7.65;;
50249;SDS011;36133;42.522;27.456;2022-11-20T14:20:36;64.50;;;9.50;;
50249;SDS011;36133;42.522;27.456;2022-11-20T14:23:03;42.65;;;7.43;;
50249;SDS011;36133;42.522;27.456;2022-11-20T14:25:30;35.88;;;7.32;;
50249;SDS011;36133;42.522;27.456;2022-11-20T14:28:00;51.65;;;8.77;;
50249;SDS011;36133;42.522;27.456;2022-11-20T14:30:29;42.70;;;8.07;;
50249;SDS011;36133;42.522;27.456;2022-11-20T14:33:12;39.75;;;6.78;;
50249;SDS011;36133;42.522;27.456;2022-11-20T14:35:44;45.97;;;8.23;;
50249;SDS011;36133;42.522;27.456;2022-11-20T14:38:17;35.72;;;6.40;;
50249;SDS011;36133;42.522;27.456;2022-11-20T14:40:47;39.65;;;7.30;;
50249;SDS011;36133;42.522;27.456;2022-11-20T14:43:17;42.03;;;7.53;;
50249;SDS011;36133;42.522;27.456;2022-11-20T14:45:48;57.63;;;9.02;;
50249;SDS011;36133;42.522;27.456;2022-11-20T14:48:23;36.65;;;7.78;;
50249;SDS011;36133;42.522;27.456;2022-11-20T14:50:53;51.13;;;8.32;;
50249;SDS011;36133;42.522;27.456;2022-11-20T14:53:23;30.02;;;6.88;;
50249;SDS011;36133;42.522;27.456;2022-11-20T14:55:57;51.78;;;8.50;;
50249;SDS011;36133;42.522;27.456;2022-11-20T14:58:25;44.87;;;8.10;;
50249;SDS011;36133;42.522;27.456;2022-11-20T15:01:00;49.45;;;7.82;;
50249;SDS011;36133;42.522;27.456;2022-11-20T15:03:32;61.85;;;9.57;;
50249;SDS011;36133;42.522;27.456;2022-11-20T15:05:59;49.55;;;8.65;;
50249;SDS011;36133;42.522;27.456;2022-11-20T15:08:25;56.40;;;9.07;;
50249;SDS011;36133;42.522;27.456;2022-11-20T15:10:51;50.83;;;8.35;;
50249;SDS011;36133;42.522;27.456;2022-11-20T15:13:25;54.00;;;9.02;;
50249;SDS011;36133;42.522;27.456;2022-11-20T15:16:03;48.67;;;8.90;;
50249;SDS011;36133;42.522;27.456;2022-11-20T15:18:41;55.67;;;8.68;;
50249;SDS011;36133;42.522;27.456;2022-11-20T15:21:11;39.67;;;8.27;;
50249;SDS011;36133;42.522;27.456;2022-11-20T15:23:38;46.03;;;8.07;;
50249;SDS011;36133;42.522;27.456;2022-11-20T15:26:04;43.88;;;7.88;;
50249;SDS011;36133;42.522;27.456;2022-11-20T15:28:32;38.67;;;8.27;;
50249;SDS011;36133;42.522;27.456;2022-11-20T15:31:01;54.58;;;8.70;;
50249;SDS011;36133;42.522;27.456;2022-11-20T15:33:28;46.28;;;7.03;;
50249;SDS011;36133;42.522;27.456;2022-11-20T15:35:53;47.40;;;8.77;;
50249;SDS011;36133;42.522;27.456;2022-11-20T15:38:19;35.00;;;7.25;;
50249;SDS011;36133;42.522;27.456;2022-11-20T15:40:45;33.33;;;7.45;;
50249;SDS011;36133;42.522;27.456;2022-11-20T15:43:11;59.03;;;9.85;;
50249;SDS011;36133;42.522;27.456;2022-11-20T15:45:41;54.80;;;8.93;;
50249;SDS011;36133;42.522;27.456;2022-11-20T15:48:17;47.55;;;8.43;;
50249;SDS011;36133;42.522;27.456;2022-11-20T15:50:48;60.05;;;8.60;;
50249;SDS011;36133;42.522;27.456;2022-11-20T15:53:23;49.47;;;8.50;;
50249;SDS011;36133;42.522;27.456;2022-11-20T15:55:49;39.97;;;7.82;;
50249;SDS011;36133;42.522;27.456;2022-11-20T15:58:17;57.92;;;9.18;;
50249;SDS011;36133;42.522;27.456;2022-11-20T16:00:43;54.85;;;8.52;;
50249;SDS011;36133;42.522;27.456;2022-11-20T16:03:13;40.92;;;6.53;;
50249;SDS011;36133;42.522;27.456;2022-11-20T16:05:39;35.72;;;7.05;;
50249;SDS011;36133;42.522;27.456;2022-11-20T16:08:05;40.47;;;7.35;;
50249;SDS011;36133;42.522;27.456;2022-11-20T16:10:31;47.00;;;8.30;;